Time;durP1;ratioP1;P1;durP2;ratioP2;P2;SDS_P1;SDS_P2;PMS_P1;PMS_P2;Temp;Humidity;BMP_temperature;BMP_pressure;BME280_temperature;BME280_humidity;BME280_pressure;Samples;Min_cycle;Max_cycle;Signal;HPM_P1;HPM_P2
2022/01/24 00:01:45;;;;;;;107.60;40.70;;;;;;;-1.50;91.11;101128.72;103532;1300;24200;-26
2022/01/24 00:04:11;;;;;;;87.80;31.30;;;;;;;-1.51;91.20;101127.73;103564;1300;24209;-29
2022/01/24 00:06:38;;;;;;;94.70;34.40;;;;;;;-1.51;91.30;101134.03;103556;1300;24326;-26
2022/01/24 00:09:04;;;;;;;182.00;67.50;;;;;;;-1.51;91.14;101131.04;103564;1300;24342;-28
2022/01/24 00:11:42;;;;;;;122.20;40.00;;;;;;;-1.52;91.35;101129.34;103496;1300;24241;-31
2022/01/24 00:14:46;;;;;;;119.00;44.70;;;;;;;-1.56;91.38;101128.29;103526;1302;24342;-29
2022/01/24 00:26:51;;;;;;;127.80;40.70;;;;;;;-1.67;91.97;101127.96;103541;1300;22523;-29
2022/01/24 00:29:18;;;;;;;151.80;44.50;;;;;;;-1.65;92.52;101126.31;103545;1302;24163;-29
2022/01/24 00:31:45;;;;;;;100.30;32.30;;;;;;;-1.63;92.55;101125.15;103600;1300;24349;-28
2022/01/24 00:34:10;;;;;;;100.90;35.20;;;;;;;-1.61;92.57;101122.23;103570;1300;24190;-26
2022/01/24 00:36:38;;;;;;;97.30;30.10;;;;;;;-1.56;92.55;101123.55;103756;1300;22950;-29
2022/01/24 00:39:04;;;;;;;100.90;31.50;;;;;;;-1.50;92.67;101119.92;103671;1301;24200;-27
2022/01/24 00:41:35;;;;;;;88.90;28.30;;;;;;;-1.45;92.31;101122.67;103596;1300;24323;-28
2022/01/24 00:46:53;;;;;;;69.60;22.10;;;;;;;-1.37;92.13;101118.93;103547;1300;24145;-28
2022/01/24 00:56:46;;;;;;;47.40;20.80;;;;;;;-1.21;92.22;101106.14;103685;1299;23894;-27
2022/01/24 00:59:12;;;;;;;57.60;20.80;;;;;;;-1.22;91.96;101106.53;103533;1301;22618;-28
2022/01/24 01:01:38;;;;;;;48.10;19.50;;;;;;;-1.21;91.94;101109.12;103508;1300;24375;-29
2022/01/24 01:04:03;;;;;;;42.80;16.10;;;;;;;-1.19;92.04;101111.16;103498;1302;24303;-28
2022/01/24 01:06:29;;;;;;;58.60;18.60;;;;;;;-1.18;92.09;101110.39;103534;1300;24252;-25
2022/01/24 01:18:52;;;;;;;124.20;45.20;;;;;;;-0.96;91.97;101122.94;103512;1300;24282;-26
2022/01/24 01:21:18;;;;;;;112.30;39.80;;;;;;;-1.00;91.62;101118.77;103538;1300;24274;-26
2022/01/24 01:23:49;;;;;;;73.50;24.70;;;;;;;-1.01;91.70;101113.21;103554;1302;22643;-29
2022/01/24 01:28:47;;;;;;;156.90;35.40;;;;;;;-1.06;91.91;101105.54;103556;1299;24180;-28
2022/01/24 01:31:23;;;;;;;208.40;49.50;;;;;;;-1.07;91.75;101108.73;103517;1302;24376;-25
2022/01/24 01:34:01;;;;;;;195.80;45.00;;;;;;;-1.12;91.34;101110.79;103415;1300;24256;-29
2022/01/24 01:56:21;;;;;;;48.80;18.30;;;;;;;-1.25;91.91;101133.95;103521;1300;24346;-29
2022/01/24 01:58:46;;;;;;;49.60;18.70;;;;;;;-1.21;92.35;101136.56;103412;1302;24178;-25
2022/01/24 02:01:12;;;;;;;48.30;17.80;;;;;;;-1.18;92.18;101130.60;103515;1302;24661;-25
2022/01/24 02:03:38;;;;;;;52.10;18.30;;;;;;;-1.17;92.10;101129.48;103428;1302;24289;-28
2022/01/24 02:06:04;;;;;;;55.70;19.60;;;;;;;-1.14;92.33;101125.68;103526;1302;22506;-28
2022/01/24 02:08:31;;;;;;;42.30;18.40;;;;;;;-1.09;92.70;101123.47;103444;1302;24219;-31
2022/01/24 02:10:58;;;;;;;56.40;20.00;;;;;;;-1.04;92.48;101123.52;103618;1301;22511;-29
2022/01/24 02:13:26;;;;;;;62.10;19.80;;;;;;;-0.98;92.49;101128.65;103555;1300;24223;-29
2022/01/24 02:26:12;;;;;;;39.00;15.70;;;;;;;-0.87;91.71;101139.73;103446;1300;22508;-29
2022/01/24 02:28:48;;;;;;;47.70;19.10;;;;;;;-0.88;91.47;101141.00;103480;1302;23890;-31
2022/01/24 02:33:47;;;;;;;37.90;16.60;;;;;;;-0.85;91.72;101141.74;103532;1302;22516;-26
2022/01/24 02:36:18;;;;;;;36.00;15.00;;;;;;;-0.87;91.52;101137.43;103582;1300;24224;-31
2022/01/24 02:39:00;;;;;;;57.30;20.50;;;;;;;-0.94;90.76;101139.39;103583;1302;24217;-26
2022/01/24 02:48:53;;;;;;;47.20;18.50;;;;;;;-0.95;91.40;101136.81;103457;1300;24332;-29
2022/01/24 02:53:48;;;;;;;52.20;17.80;;;;;;;-1.00;91.62;101136.30;103570;1300;24186;-27
2022/01/24 02:56:14;;;;;;;33.80;14.20;;;;;;;-1.00;91.58;101135.65;103686;1299;24305;-32
2022/01/24 02:58:40;;;;;;;39.70;17.60;;;;;;;-1.04;91.36;101138.15;103612;1302;24301;-27
2022/01/24 03:01:07;;;;;;;55.60;17.70;;;;;;;-1.06;91.41;101139.10;103570;1300;24219;-25
2022/01/24 03:03:34;;;;;;;38.60;17.60;;;;;;;-1.08;91.58;101135.69;103550;1302;24186;-29
2022/01/24 03:06:00;;;;;;;50.10;18.60;;;;;;;-1.08;91.80;101138.16;103583;1300;24350;-25
2022/01/24 03:08:25;;;;;;;53.90;16.60;;;;;;;-1.03;91.96;101138.26;103564;1300;24296;-26
2022/01/24 03:10:53;;;;;;;39.50;16.20;;;;;;;-0.99;91.80;101139.26;103613;1300;24325;-29
2022/01/24 03:13:32;;;;;;;38.30;18.00;;;;;;;-1.01;91.70;101142.73;103508;1301;24374;-31
2022/01/24 03:16:00;;;;;;;36.80;14.70;;;;;;;-0.99;91.73;101142.60;103500;1302;24160;-28
2022/01/24 03:18:26;;;;;;;49.30;18.40;;;;;;;-0.97;91.89;101144.42;103545;1300;24222;-26
2022/01/24 03:20:52;;;;;;;44.90;16.10;;;;;;;-0.99;91.55;101140.85;103578;1302;22531;-26
2022/01/24 03:23:19;;;;;;;62.70;18.20;;;;;;;-1.01;91.69;101139.02;103550;1301;24430;-29
2022/01/24 03:25:45;;;;;;;51.30;20.70;;;;;;;-1.00;91.69;101139.65;103503;1302;24293;-31
2022/01/24 03:28:11;;;;;;;38.20;18.20;;;;;;;-0.96;91.71;101147.05;103561;1300;24236;-26
2022/01/24 03:30:37;;;;;;;54.50;20.40;;;;;;;-0.94;91.53;101151.52;103603;1300;24278;-29
2022/01/24 03:33:05;;;;;;;47.30;20.80;;;;;;;-0.97;91.43;101151.48;103526;1301;24237;-29
2022/01/24 03:35:31;;;;;;;45.30;17.90;;;;;;;-0.98;91.55;101148.89;103546;1300;24205;-26
2022/01/24 03:37:57;;;;;;;61.70;20.30;;;;;;;-0.97;91.41;101146.36;103632;1300;24263;-26
2022/01/24 03:40:23;;;;;;;38.60;16.40;;;;;;;-1.04;91.29;101148.86;103579;1302;22755;-29
2022/01/24 03:42:49;;;;;;;51.00;18.10;;;;;;;-1.04;91.63;101149.39;103518;1302;24267;-29
2022/01/24 03:45:16;;;;;;;33.80;16.40;;;;;;;-1.07;91.45;101154.96;103516;1300;24185;-25
2022/01/24 03:47:55;;;;;;;32.10;14.70;;;;;;;-1.07;91.60;101151.63;103567;1300;24204;-29
2022/01/24 03:50:21;;;;;;;43.00;16.10;;;;;;;-1.07;91.48;101146.90;103458;1300;24226;-24
2022/01/24 03:52:46;;;;;;;49.10;17.90;;;;;;;-1.07;92.05;101142.30;103477;1300;24290;-26
2022/01/24 03:55:13;;;;;;;35.40;15.70;;;;;;;-1.05;92.21;101146.60;103527;1302;24176;-29
2022/01/24 03:57:39;;;;;;;32.30;13.60;;;;;;;-1.04;92.03;101148.66;103571;1302;24260;-26
2022/01/24 04:00:07;;;;;;;47.60;17.60;;;;;;;-1.05;91.95;101147.83;103546;1301;24414;-29
2022/01/24 04:02:32;;;;;;;45.20;16.60;;;;;;;-1.07;91.67;101150.40;103543;1302;24312;-29
2022/01/24 04:04:58;;;;;;;37.70;14.10;;;;;;;-1.11;91.56;101151.85;103584;1301;22997;-27
2022/01/24 04:07:23;;;;;;;34.20;15.10;;;;;;;-1.14;91.51;101150.61;103539;1302;24321;-29
2022/01/24 04:09:50;;;;;;;38.20;14.10;;;;;;;-1.15;91.46;101153.28;103139;1300;496850;-26
2022/01/24 04:12:16;;;;;;;46.40;17.20;;;;;;;-1.19;91.49;101158.21;103483;1300;22555;-28
2022/01/24 04:22:11;;;;;;;37.70;15.50;;;;;;;-1.17;91.14;101154.08;103497;1300;24319;-29
2022/01/24 04:24:37;;;;;;;44.20;17.30;;;;;;;-1.17;90.97;101146.70;103572;1300;24228;-29
2022/01/24 04:27:04;;;;;;;53.40;21.60;;;;;;;-1.14;91.22;101147.95;103465;1302;24265;-26
2022/01/24 04:29:29;;;;;;;42.90;16.80;;;;;;;-1.09;91.14;101145.59;103494;1302;24330;-31
2022/01/24 04:31:55;;;;;;;42.20;15.90;;;;;;;-1.09;90.77;101149.14;103582;1300;24328;-31
2022/01/24 04:34:22;;;;;;;43.30;15.50;;;;;;;-1.16;90.69;101153.88;103518;1301;24154;-31
2022/01/24 04:36:48;;;;;;;42.10;16.80;;;;;;;-1.18;90.91;101153.25;103499;1302;24332;-25
2022/01/24 04:39:14;;;;;;;37.90;15.10;;;;;;;-1.16;91.08;101157.02;103534;1300;24353;-29
2022/01/24 04:41:43;;;;;;;36.80;16.40;;;;;;;-1.11;91.32;101156.08;103521;1300;24220;-28
2022/01/24 04:51:57;;;;;;;37.30;14.70;;;;;;;-1.11;90.69;101156.80;103563;1302;24454;-28
2022/01/24 04:56:51;;;;;;;40.90;15.70;;;;;;;-1.16;90.37;101152.98;103459;1300;24297;-28
2022/01/24 04:59:17;;;;;;;39.50;16.30;;;;;;;-1.19;90.40;101154.71;103489;1302;24226;-29
2022/01/24 05:01:43;;;;;;;38.60;14.40;;;;;;;-1.25;90.06;101156.10;103595;1302;24345;-26
2022/01/24 05:04:09;;;;;;;47.10;13.40;;;;;;;-1.24;90.26;101154.63;103516;1300;24178;-26
2022/01/24 05:06:34;;;;;;;27.80;13.40;;;;;;;-1.19;90.57;101155.25;103509;1301;24303;-29
2022/01/24 05:09:00;;;;;;;32.60;14.30;;;;;;;-1.20;90.72;101157.77;103488;1301;24195;-29
2022/01/24 05:11:37;;;;;;;33.50;15.50;;;;;;;-1.17;90.52;101158.67;103551;1302;24285;-31
2022/01/24 05:23:23;;;;;;;29.60;11.90;;;;;;;-1.17;89.96;101155.54;103602;1302;24197;-29
2022/01/24 05:24:16;;;;;;;51.30;17.20;;;;;;;-1.28;89.96;101164.17;103506;1302;24213;-29
2022/01/24 05:26:42;;;;;;;46.90;17.60;;;;;;;-1.34;90.58;101167.45;103502;1302;24367;-26
2022/01/24 05:29:08;;;;;;;48.80;18.50;;;;;;;-1.29;90.72;101168.94;103496;1303;24231;-26
2022/01/24 05:31:33;;;;;;;62.50;17.80;;;;;;;-1.27;90.83;101175.52;103458;1302;24225;-26
2022/01/24 05:33:59;;;;;;;67.80;19.40;;;;;;;-1.21;90.29;101178.38;103511;1300;24265;-26
2022/01/24 05:36:24;;;;;;;54.90;20.70;;;;;;;-1.24;89.64;101181.34;103491;1301;24461;-26
2022/01/24 05:38:50;;;;;;;60.30;23.40;;;;;;;-1.29;89.32;101184.59;103516;1300;24455;-29
2022/01/24 05:41:17;;;;;;;59.20;23.30;;;;;;;-1.43;89.61;101183.88;103566;1300;22518;-29
2022/01/24 05:43:43;;;;;;;67.20;23.90;;;;;;;-1.45;89.61;101186.62;103506;1300;24197;-29
2022/01/24 05:46:09;;;;;;;104.80;35.00;;;;;;;-1.49;89.87;101189.60;103488;1302;24274;-27
2022/01/24 05:48:35;;;;;;;101.80;33.60;;;;;;;-1.49;89.91;101190.67;103519;1300;24248;-26
2022/01/24 05:51:00;;;;;;;68.60;28.20;;;;;;;-1.52;90.27;101191.52;103495;1302;24259;-28
2022/01/24 05:53:26;;;;;;;83.40;29.80;;;;;;;-1.49;90.58;101192.95;103523;1300;24378;-31
2022/01/24 05:55:53;;;;;;;73.90;27.90;;;;;;;-1.46;90.89;101191.57;103489;1300;24313;-31
2022/01/24 05:58:19;;;;;;;63.30;23.20;;;;;;;-1.40;90.67;101188.64;103515;1302;24211;-31
2022/01/24 06:00:45;;;;;;;67.10;23.10;;;;;;;-1.33;90.37;101191.98;103476;1300;24265;-24
2022/01/24 06:03:10;;;;;;;74.60;28.50;;;;;;;-1.35;89.85;101188.73;103534;1300;24272;-26
2022/01/24 06:05:36;;;;;;;77.80;29.40;;;;;;;-1.39;89.72;101184.04;103510;1300;22505;-27
2022/01/24 06:08:02;;;;;;;64.40;25.10;;;;;;;-1.50;89.71;101182.27;103525;1300;24359;-29
2022/01/24 06:10:28;;;;;;;66.00;21.70;;;;;;;-1.56;90.10;101186.10;103516;1300;24304;-30
2022/01/24 06:12:54;;;;;;;64.40;24.90;;;;;;;-1.58;90.53;101188.66;103493;1300;24329;-27
2022/01/24 06:15:19;;;;;;;54.50;21.60;;;;;;;-1.59;90.49;101191.67;103529;1300;24199;-26
2022/01/24 06:17:45;;;;;;;63.90;21.70;;;;;;;-1.56;90.87;101198.22;103547;1300;24336;-28
2022/01/24 06:20:11;;;;;;;51.90;17.60;;;;;;;-1.54;90.77;101202.52;103590;1300;24218;-26
2022/01/24 06:22:37;;;;;;;53.80;18.50;;;;;;;-1.51;90.78;101202.36;103518;1300;24179;-29
2022/01/24 06:25:05;;;;;;;59.90;20.00;;;;;;;-1.49;90.62;101204.52;103545;1300;24314;-30
2022/01/24 06:27:30;;;;;;;47.80;19.60;;;;;;;-1.48;90.52;101204.48;103528;1302;25488;-29
2022/01/24 06:29:56;;;;;;;54.10;18.60;;;;;;;-1.43;90.67;101201.98;103545;1302;24355;-31
2022/01/24 06:32:22;;;;;;;46.70;19.00;;;;;;;-1.48;90.56;101206.79;103462;1300;22522;-29
2022/01/24 06:34:47;;;;;;;71.10;21.10;;;;;;;-1.43;91.20;101208.84;103524;1300;24254;-25
2022/01/24 06:37:13;;;;;;;69.50;21.40;;;;;;;-1.35;90.82;101204.05;103503;1300;24310;-26
2022/01/24 06:39:39;;;;;;;61.10;21.20;;;;;;;-1.35;90.61;101208.64;103566;1300;24201;-29
2022/01/24 06:42:12;;;;;;;59.20;24.50;;;;;;;-1.32;90.59;101209.20;103500;1300;22510;-26
2022/01/24 06:44:38;;;;;;;79.10;25.10;;;;;;;-1.33;90.53;101211.50;103567;1300;22523;-25
2022/01/24 06:47:04;;;;;;;51.70;21.90;;;;;;;-1.31;90.47;101211.57;103399;1300;24175;-29
2022/01/24 06:49:31;;;;;;;87.00;25.50;;;;;;;-1.34;90.52;101213.48;103450;1302;24315;-31
2022/01/24 06:51:56;;;;;;;57.00;24.80;;;;;;;-1.31;90.58;101218.05;103558;1301;24312;-31
2022/01/24 06:54:22;;;;;;;71.70;22.30;;;;;;;-1.29;90.41;101221.29;103528;1301;24334;-29
2022/01/24 06:56:48;;;;;;;52.90;19.30;;;;;;;-1.23;90.56;101224.34;103566;1300;24185;-29
2022/01/24 06:59:13;;;;;;;49.10;20.50;;;;;;;-1.21;90.50;101221.42;103539;1300;22713;-29
2022/01/24 07:01:39;;;;;;;60.20;22.10;;;;;;;-1.14;90.71;101223.04;103523;1301;24335;-29
2022/01/24 07:04:05;;;;;;;74.20;26.70;;;;;;;-1.08;90.80;101228.17;103507;1300;24218;-30
2022/01/24 07:06:30;;;;;;;66.40;25.70;;;;;;;-0.99;90.58;101229.30;103502;1300;24313;-26
2022/01/24 07:08:56;;;;;;;56.80;22.10;;;;;;;-0.94;90.63;101226.42;103485;1303;22504;-29
2022/01/24 07:11:22;;;;;;;60.20;23.60;;;;;;;-0.82;90.54;101228.77;103597;1300;23993;-31
2022/01/24 07:13:50;;;;;;;57.50;25.70;;;;;;;-0.76;90.30;101228.11;103506;1302;24275;-28
2022/01/24 07:16:16;;;;;;;46.50;20.10;;;;;;;-0.68;90.10;101228.09;103594;1300;24987;-26
2022/01/24 07:21:11;;;;;;;78.10;27.90;;;;;;;-0.57;89.54;101226.08;103543;1301;24178;-31
2022/01/24 07:23:36;;;;;;;68.80;26.10;;;;;;;-0.63;88.92;101234.86;103558;1300;24145;-27
2022/01/24 07:26:02;;;;;;;64.00;25.10;;;;;;;-0.72;89.12;101232.68;103487;1300;24303;-26
2022/01/24 07:28:28;;;;;;;66.50;28.80;;;;;;;-0.66;88.80;101234.45;103526;1302;24305;-30
2022/01/24 07:30:54;;;;;;;83.00;28.40;;;;;;;-0.69;88.29;101232.88;103472;1300;24224;-27
2022/01/24 07:33:19;;;;;;;70.00;30.70;;;;;;;-0.75;88.40;101236.16;103463;1300;24335;-29
2022/01/24 07:35:45;;;;;;;66.10;28.00;;;;;;;-0.73;88.37;101240.98;103511;1301;24167;-26
2022/01/24 07:38:12;;;;;;;63.70;25.30;;;;;;;-0.69;88.30;101238.87;103513;1301;22749;-31
2022/01/24 07:40:41;;;;;;;91.40;30.20;;;;;;;-0.67;88.63;101241.36;103570;1300;24329;-27
2022/01/24 07:43:10;;;;;;;79.60;28.30;;;;;;;-0.65;88.64;101243.92;103514;1300;24195;-29
2022/01/24 07:45:37;;;;;;;72.60;28.70;;;;;;;-0.55;89.30;101243.92;103524;1300;22599;-29
2022/01/24 07:48:04;;;;;;;76.40;28.50;;;;;;;-0.33;89.07;101244.86;103545;1300;22830;-29
2022/01/24 07:50:30;;;;;;;76.40;29.70;;;;;;;-0.23;88.55;101241.55;103530;1300;24178;-26
2022/01/24 07:52:56;;;;;;;75.10;28.70;;;;;;;-0.12;88.72;101239.51;103601;1299;24254;-27
2022/01/24 07:55:22;;;;;;;68.60;27.80;;;;;;;0.04;88.00;101234.98;103569;1300;24254;-28
2022/01/24 07:57:48;;;;;;;86.10;32.50;;;;;;;0.05;86.36;101238.98;103515;1301;24241;-28
2022/01/24 08:00:14;;;;;;;84.70;33.90;;;;;;;-0.08;85.97;101241.41;103529;1301;24291;-25
2022/01/24 08:02:40;;;;;;;73.50;27.30;;;;;;;-0.17;86.66;101242.25;103553;1300;24262;-27
2022/01/24 08:05:07;;;;;;;77.00;26.90;;;;;;;-0.12;86.09;101242.15;103548;1301;24594;-29
2022/01/24 08:07:33;;;;;;;78.80;28.30;;;;;;;-0.16;86.51;101244.67;103585;1300;24239;-26
2022/01/24 08:09:59;;;;;;;77.90;30.10;;;;;;;-0.06;86.10;101240.41;103526;1300;24608;-28
2022/01/24 08:12:25;;;;;;;96.40;30.90;;;;;;;-0.09;86.67;101243.94;103511;1300;24348;-27
2022/01/24 08:14:50;;;;;;;61.40;26.30;;;;;;;0.02;86.99;101244.77;103593;1300;24265;-26
2022/01/24 08:17:16;;;;;;;66.70;27.50;;;;;;;0.13;86.36;101251.73;103600;1300;24185;-26
2022/01/24 08:19:42;;;;;;;89.90;29.10;;;;;;;0.20;85.65;101256.64;103497;1300;24416;-26
2022/01/24 08:22:08;;;;;;;68.00;26.20;;;;;;;0.24;84.89;101258.49;103418;1300;24312;-29
2022/01/24 08:24:34;;;;;;;63.80;25.80;;;;;;;0.23;85.52;101256.84;103526;1299;22519;-29
2022/01/24 08:27:00;;;;;;;57.80;24.50;;;;;;;0.35;84.77;101256.16;103545;1300;22526;-28
2022/01/24 08:29:25;;;;;;;76.20;28.90;;;;;;;0.36;84.69;101256.96;103521;1302;24294;-28
2022/01/24 08:31:51;;;;;;;74.80;30.60;;;;;;;0.40;84.46;101264.34;103563;1300;24213;-31
2022/01/24 08:34:17;;;;;;;65.30;26.10;;;;;;;0.37;84.21;101261.52;103512;1300;24300;-26
2022/01/24 08:36:42;;;;;;;74.60;28.80;;;;;;;0.28;85.01;101262.38;103569;1300;24275;-31
2022/01/24 08:39:09;;;;;;;78.40;32.70;;;;;;;0.37;85.59;101257.95;103480;1302;24450;-26
2022/01/24 08:46:35;;;;;;;75.30;25.90;;;;;;;0.61;84.96;101252.21;103513;1300;24200;-29
2022/01/24 08:49:00;;;;;;;71.50;27.70;;;;;;;0.64;83.72;101249.23;103506;1300;24464;-27
2022/01/24 08:51:26;;;;;;;63.60;29.20;;;;;;;0.54;84.31;101247.88;103527;1300;24185;-24
2022/01/24 08:53:51;;;;;;;70.30;24.90;;;;;;;0.58;84.09;101246.79;103552;1300;22525;-29
2022/01/24 08:56:18;;;;;;;75.40;28.20;;;;;;;0.70;83.55;101246.27;103508;1300;24300;-26
2022/01/24 08:58:44;;;;;;;68.70;28.40;;;;;;;0.67;83.08;101244.97;103559;1300;24274;-29
2022/01/24 09:01:10;;;;;;;84.40;29.40;;;;;;;0.62;83.89;101244.41;103519;1300;24225;-29
2022/01/24 09:03:38;;;;;;;92.10;28.50;;;;;;;0.71;83.36;101245.67;103461;1300;24185;-26
2022/01/24 09:06:06;;;;;;;64.30;27.60;;;;;;;0.65;83.74;101243.16;103591;1300;24307;-27
2022/01/24 09:08:31;;;;;;;91.60;30.50;;;;;;;0.78;84.03;101246.29;103554;1300;24173;-30
2022/01/24 09:10:57;;;;;;;77.10;28.50;;;;;;;1.00;82.81;101243.08;103530;1300;22496;-26
2022/01/24 09:13:23;;;;;;;62.70;27.00;;;;;;;0.94;82.44;101245.00;103527;1300;24217;-29
2022/01/24 09:15:49;;;;;;;87.60;34.90;;;;;;;1.01;83.15;101246.42;103524;1302;24212;-25
2022/01/24 09:18:16;;;;;;;74.30;30.40;;;;;;;1.18;83.14;101247.48;103516;1300;24202;-29
2022/01/24 09:20:42;;;;;;;62.90;27.80;;;;;;;1.26;82.15;101250.20;103533;1300;22520;-26
2022/01/24 09:23:08;;;;;;;71.80;28.00;;;;;;;1.29;81.47;101252.65;103560;1300;24216;-29
2022/01/24 09:25:34;;;;;;;77.20;29.30;;;;;;;1.51;80.07;101247.48;103499;1300;24334;-29
2022/01/24 09:28:00;;;;;;;77.70;30.00;;;;;;;1.36;79.63;101249.80;103556;1300;24337;-26
2022/01/24 09:30:26;;;;;;;77.20;30.10;;;;;;;1.33;80.75;101248.91;103579;1303;24216;-25
2022/01/24 09:32:52;;;;;;;71.70;28.30;;;;;;;1.51;78.91;101247.65;103573;1303;24233;-26
2022/01/24 09:35:18;;;;;;;66.30;28.20;;;;;;;1.41;79.34;101247.70;103500;1300;24345;-26
2022/01/24 09:37:45;;;;;;;65.60;28.50;;;;;;;1.39;79.60;101242.19;103529;1300;22690;-29
2022/01/24 09:40:13;;;;;;;85.40;29.00;;;;;;;1.56;78.44;101242.90;103592;1300;24256;-29
2022/01/24 09:42:39;;;;;;;66.60;27.40;;;;;;;1.56;78.25;101249.27;103558;1300;22521;-29
2022/01/24 09:45:07;;;;;;;76.80;30.00;;;;;;;1.51;79.26;101256.65;103575;1300;24327;-29
2022/01/24 09:47:32;;;;;;;72.50;29.90;;;;;;;1.60;80.29;101248.33;103604;1301;22523;-29
2022/01/24 09:49:58;;;;;;;68.70;28.40;;;;;;;1.86;79.25;101247.41;103553;1300;24217;-29
2022/01/24 09:52:24;;;;;;;74.90;27.60;;;;;;;1.91;79.27;101248.73;103551;1300;24327;-25
2022/01/24 09:54:49;;;;;;;68.60;29.80;;;;;;;2.08;77.90;101251.02;103558;1300;22511;-25
2022/01/24 09:57:15;;;;;;;72.10;29.70;;;;;;;2.04;76.78;101248.46;103534;1300;24280;-25
2022/01/24 09:59:41;;;;;;;78.50;30.20;;;;;;;1.96;77.00;101249.16;103566;1300;24252;-28
2022/01/24 10:02:07;;;;;;;71.90;29.90;;;;;;;1.90;77.21;101248.81;103546;1300;24354;-29
2022/01/24 10:04:33;;;;;;;76.70;32.00;;;;;;;1.88;77.38;101248.04;103542;1299;24269;-28
2022/01/24 10:06:59;;;;;;;70.30;31.50;;;;;;;2.00;78.12;101249.37;103545;1300;24195;-26
2022/01/24 10:09:28;;;;;;;84.20;36.10;;;;;;;2.29;77.80;101245.77;103507;1300;24318;-29
2022/01/24 10:12:01;;;;;;;73.60;30.30;;;;;;;2.50;77.38;101246.43;103534;1300;24191;-26
2022/01/24 10:17:12;;;;;;;65.30;28.00;;;;;;;2.57;75.05;101241.15;103552;1300;24366;-29
2022/01/24 10:19:38;;;;;;;70.90;28.40;;;;;;;2.50;74.49;101247.30;103528;1300;25378;-29
2022/01/24 10:22:04;;;;;;;73.30;31.90;;;;;;;2.41;76.13;101245.01;103568;1300;24444;-29
2022/01/24 10:24:33;;;;;;;67.60;29.80;;;;;;;2.48;74.72;101245.98;103516;1300;24253;-29
2022/01/24 10:27:05;;;;;;;58.40;27.30;;;;;;;2.42;74.65;101243.56;103536;1300;24340;-27
2022/01/24 10:29:31;;;;;;;71.80;28.00;;;;;;;2.44;76.29;101246.58;103570;1300;22571;-26
2022/01/24 10:31:56;;;;;;;71.40;30.30;;;;;;;2.69;75.87;101243.92;103495;1300;24210;-25
2022/01/24 10:34:28;;;;;;;58.20;27.10;;;;;;;2.83;76.23;101242.11;103459;1300;24185;-29
2022/01/24 10:36:55;;;;;;;69.70;29.30;;;;;;;3.04;75.74;101244.61;103592;1300;24379;-26
2022/01/24 10:39:29;;;;;;;66.70;29.70;;;;;;;3.07;74.08;101232.21;103484;1300;22522;-29
2022/01/24 10:42:11;;;;;;;79.90;29.80;;;;;;;3.00;74.42;101227.87;103551;1300;24236;-29
2022/01/24 10:44:37;;;;;;;48.90;24.60;;;;;;;3.10;71.27;101228.98;103517;1300;24299;-26
2022/01/24 10:47:11;;;;;;;65.30;27.00;;;;;;;2.83;72.02;101226.86;103575;1300;22509;-29
2022/01/24 10:49:37;;;;;;;66.10;28.80;;;;;;;2.77;72.53;101226.60;103544;1300;25494;-25
2022/01/24 10:52:09;;;;;;;66.90;28.90;;;;;;;2.77;72.51;101227.11;103506;1300;24275;-26
2022/01/24 10:54:35;;;;;;;73.30;27.20;;;;;;;2.76;72.73;101226.11;103555;1300;22568;-26
2022/01/24 10:57:00;;;;;;;68.20;29.40;;;;;;;2.75;73.17;101227.59;103538;1300;24295;-25
2022/01/24 10:59:26;;;;;;;66.60;29.00;;;;;;;2.82;73.94;101230.70;103562;1300;22652;-25
2022/01/24 11:01:52;;;;;;;71.10;27.90;;;;;;;2.99;72.90;101230.76;103508;1300;24431;-29
2022/01/24 11:04:19;;;;;;;42.60;20.60;;;;;;;3.21;71.45;101228.98;103502;1300;24300;-26
2022/01/24 11:06:46;;;;;;;68.40;28.40;;;;;;;3.57;68.91;101224.34;103717;1300;24295;-26
2022/01/24 11:09:15;;;;;;;71.80;29.80;;;;;;;3.22;69.82;101226.20;103540;1302;24174;-25
2022/01/24 11:11:42;;;;;;;69.50;28.60;;;;;;;2.91;72.59;101225.67;103463;1300;24197;-26
2022/01/24 11:14:09;;;;;;;57.30;26.50;;;;;;;2.89;71.02;101221.56;103498;1302;24291;-29
2022/01/24 11:16:37;;;;;;;61.00;28.40;;;;;;;2.87;70.79;101218.30;103586;1300;23951;-29
2022/01/24 11:19:08;;;;;;;70.60;29.10;;;;;;;2.67;71.38;101219.43;103518;1300;24215;-29
2022/01/24 11:21:34;;;;;;;67.50;29.20;;;;;;;2.54;71.55;101213.73;103529;1300;24385;-29
2022/01/24 11:24:04;;;;;;;62.30;28.00;;;;;;;2.46;70.95;101208.98;103526;1300;24179;-29
2022/01/24 11:26:30;;;;;;;67.90;29.10;;;;;;;2.45;70.76;101199.70;103629;1302;22845;-25
2022/01/24 11:28:56;;;;;;;72.80;29.50;;;;;;;2.19;72.98;101190.77;103496;1303;24319;-26
2022/01/24 11:31:26;;;;;;;61.30;27.40;;;;;;;2.26;72.26;101185.55;103495;1300;24275;-29
2022/01/24 11:33:56;;;;;;;77.70;31.40;;;;;;;2.38;71.49;101177.17;103555;1300;24222;-25
2022/01/24 11:36:36;;;;;;;74.90;31.90;;;;;;;2.34;70.86;101179.89;103551;1300;22517;-26
2022/01/24 11:39:02;;;;;;;71.70;31.80;;;;;;;2.29;70.70;101170.13;103501;1300;24340;-29
2022/01/24 11:41:33;;;;;;;74.10;32.30;;;;;;;2.16;71.98;101171.34;103520;1300;22520;-25
2022/01/24 11:44:07;;;;;;;69.10;30.00;;;;;;;2.12;72.71;101170.36;103548;1300;24386;-25
2022/01/24 11:46:43;;;;;;;71.30;31.80;;;;;;;2.16;71.76;101176.31;103499;1302;24223;-29
2022/01/24 11:49:12;;;;;;;70.20;30.90;;;;;;;2.26;72.61;101181.98;103577;1300;24178;-25
2022/01/24 11:51:39;;;;;;;65.20;28.10;;;;;;;2.30;72.51;101182.80;103579;1300;24419;-25
2022/01/24 11:54:32;;;;;;;61.30;25.30;;;;;;;2.32;71.09;101177.70;103574;1300;24310;-25
2022/01/24 11:57:19;;;;;;;70.20;26.10;;;;;;;2.26;71.64;101177.77;103606;1300;24269;-28
2022/01/24 11:59:45;;;;;;;53.90;22.40;;;;;;;2.32;70.47;101171.14;103551;1301;24192;-29
2022/01/24 12:02:13;;;;;;;58.30;26.60;;;;;;;2.14;70.72;101170.40;103527;1300;24233;-27
2022/01/24 12:04:46;;;;;;;64.60;25.50;;;;;;;2.12;70.48;101167.38;103595;1300;24345;-25
2022/01/24 12:07:16;;;;;;;70.60;26.90;;;;;;;2.04;71.01;101167.16;103535;1300;25953;-29
2022/01/24 12:09:41;;;;;;;61.30;26.80;;;;;;;1.94;72.40;101165.67;103133;1300;549823;-28
2022/01/24 12:12:14;;;;;;;66.90;28.50;;;;;;;1.99;72.62;101161.99;103453;1300;24522;-29
2022/01/24 12:14:39;;;;;;;61.40;25.60;;;;;;;2.04;72.61;101159.00;103587;1301;24253;-26
2022/01/24 12:17:10;;;;;;;65.90;29.60;;;;;;;2.15;71.51;101158.16;103519;1300;22867;-28
2022/01/24 12:19:35;;;;;;;60.90;27.40;;;;;;;2.13;72.21;101156.83;103478;1300;22774;-31
2022/01/24 12:22:09;;;;;;;57.20;24.70;;;;;;;2.17;72.32;101157.83;103648;1300;24330;-25
2022/01/24 12:24:38;;;;;;;;;;;;;;;2.20;72.83;101161.00;103506;1300;24269;-26
2022/01/24 12:27:05;;;;;;;72.00;30.50;;;;;;;2.24;72.51;101160.17;103561;1301;24322;-25
2022/01/24 12:29:31;;;;;;;68.90;28.80;;;;;;;2.36;71.90;101158.75;103655;1301;24185;-29
2022/01/24 12:31:58;;;;;;;58.70;26.50;;;;;;;2.27;72.10;101151.71;103588;1300;24378;-28
2022/01/24 12:34:31;;;;;;;64.10;29.20;;;;;;;2.29;71.70;101148.59;103513;1300;24185;-28
2022/01/24 12:37:00;;;;;;;63.80;30.20;;;;;;;2.18;72.57;101138.37;103547;1301;24175;-25
2022/01/24 12:39:32;;;;;;;60.80;27.40;;;;;;;2.23;72.43;101128.65;103561;1300;25772;-29
2022/01/24 12:42:06;;;;;;;79.50;29.90;;;;;;;2.09;73.31;101131.17;103509;1300;23895;-29
2022/01/24 12:47:26;;;;;;;77.20;31.50;;;;;;;2.13;72.94;101126.65;103571;1300;24236;-26
2022/01/24 12:49:52;;;;;;;78.00;30.60;;;;;;;2.30;72.19;101124.85;103500;1301;24294;-25
2022/01/24 12:52:21;;;;;;;76.70;29.10;;;;;;;2.08;72.85;101126.98;103566;1300;24435;-29
2022/01/24 12:54:49;;;;;;;70.90;28.90;;;;;;;2.13;73.54;101124.52;103531;1300;24201;-26
2022/01/24 12:57:17;;;;;;;66.30;30.30;;;;;;;2.13;73.61;101122.59;103557;1300;24252;-25
2022/01/24 12:59:49;;;;;;;65.30;30.40;;;;;;;2.15;73.15;101121.95;103548;1300;24226;-25